Time;durP1;ratioP1;P1;durP2;ratioP2;P2;SDS_P1;SDS_P2;PMS_P1;PMS_P2;Temp;Humidity;BMP_temperature;BMP_pressure;BME280_temperature;BME280_humidity;BME280_pressure;Samples;Min_cycle;Max_cycle;Signal;HPM_P1;HPM_P2
2022/01/02 00:00:19;;;;;;;;;;;;;;;;;;7393825;19;20364;-53
2022/01/02 00:02:49;;;;;;;;;;;;;;;;;;7394630;19;19919;-56
2022/01/02 00:05:18;;;;;;;;;;;;;;;;;;7393967;19;19919;-65
2022/01/02 00:07:53;;;;;;;;;;;;;;;;;;7394618;19;19915;-66
2022/01/02 00:10:21;;;;;;;;;;;;;;;;;;7394142;19;19919;-51
2022/01/02 00:12:56;;;;;;;;;;;;;;;;;;7394396;19;19923;-56
2022/01/02 00:15:24;;;;;;;;;;;;;;;;;;7394251;19;19914;-56
2022/01/02 00:17:54;;;;;;;;;;;;;;;;;;7392910;19;19942;-56
2022/01/02 00:20:43;;;;;;;;;;;;;;;;;;7394720;19;19935;-66
2022/01/02 00:23:17;;;;;;;;;;;;;;;;;;7394023;19;19915;-66
2022/01/02 00:25:44;;;;;;;;;;;;;;;;;;7393446;19;19919;-57
2022/01/02 00:28:12;;;;;;;;;;;;;;;;;;7393872;19;19919;-65
2022/01/02 00:30:41;;;;;;;;;;;;;;;;;;7392298;19;19931;-53
2022/01/02 00:33:08;;;;;;;;;;;;;;;;;;7392238;19;19919;-59
2022/01/02 00:35:39;;;;;;;;;;;;;;;;;;7390632;19;19939;-58
2022/01/02 00:38:07;;;;;;;;;;;;;;;;;;7391075;19;19914;-66
2022/01/02 00:40:38;;;;;;;;;;;;;;;;;;7393265;19;19914;-52
2022/01/02 00:43:07;;;;;;;;;;;;;;;;;;7391652;19;20339;-53
2022/01/02 00:45:44;;;;;;;;;;;;;;;;;;7393002;19;19911;-48
2022/01/02 00:48:20;;;;;;;;;;;;;;;;;;7391124;19;20332;-66
2022/01/02 00:50:51;;;;;;;;;;;;;;;;;;7394256;19;19914;-49
2022/01/02 00:53:19;;;;;;;;;;;;;;;;;;7392582;19;19929;-52
2022/01/02 00:55:47;;;;;;;;;;;;;;;;;;7390883;19;20342;-49
2022/01/02 00:58:18;;;;;;;;;;;;;;;;;;7390080;19;19926;-65
2022/01/02 01:00:50;;;;;;;;;;;;;;;;;;7392469;19;19925;-66
2022/01/02 01:03:22;;;;;;;;;;;;;;;;;;7392748;19;19931;-66
2022/01/02 01:05:52;;;;;;;;;;;;;;;;;;7392607;19;19932;-66
2022/01/02 01:08:19;;;;;;;;;;;;;;;;;;7392437;19;19915;-54
2022/01/02 01:10:49;;;;;;;;;;;;;;;;;;7392638;19;20248;-51
2022/01/02 01:13:17;;;;;;;;;;;;;;;;;;7392593;19;19938;-51
2022/01/02 01:15:44;;;;;;;;;;;;;;;;;;7392442;19;19913;-56
2022/01/02 01:18:11;;;;;;;;;;;;;;;;;;7391376;19;20260;-62
2022/01/02 01:20:41;;;;;;;;;;;;;;;;;;7392523;19;20265;-55
2022/01/02 01:23:16;;;;;;;;;;;;;;;;;;7391806;19;19939;-54
2022/01/02 01:25:46;;;;;;;;;;;;;;;;;;7390594;19;19926;-49
2022/01/02 01:28:14;;;;;;;;;;;;;;;;;;7392642;19;19922;-54
2022/01/02 01:30:42;;;;;;;;;;;;;;;;;;7394939;19;19919;-65
2022/01/02 01:33:09;;;;;;;;;;;;;;;;;;7398188;19;19918;-64
2022/01/02 01:35:37;;;;;;;;;;;;;;;;;;7396025;19;19966;-57
2022/01/02 01:38:04;;;;;;;;;;;;;;;;;;7397892;19;20280;-59
2022/01/02 01:40:37;;;;;;;;;;;;;;;;;;7399889;19;19915;-48
2022/01/02 01:43:05;;;;;;;;;;;;;;;;;;7399449;19;19914;-51
2022/01/02 01:45:39;;;;;;;;;;;;;;;;;;7397402;19;19923;-60
2022/01/02 01:48:07;;;;;;;;;;;;;;;;;;7399202;19;19925;-50
2022/01/02 01:50:37;;;;;;;;;;;;;;;;;;7399679;19;19921;-48
2022/01/02 01:53:07;;;;;;;;;;;;;;;;;;7397234;19;19999;-66
2022/01/02 01:55:37;;;;;;;;;;;;;;;;;;7397193;19;19935;-48
2022/01/02 01:58:05;;;;;;;;;;;;;;;;;;7396270;19;19918;-51
2022/01/02 02:00:36;;;;;;;;;;;;;;;;;;7397168;19;20342;-51
2022/01/02 02:03:09;;;;;;;;;;;;;;;;;;7398464;19;19974;-57
2022/01/02 02:05:37;;;;;;;;;;;;;;;;;;7397120;19;19926;-64
2022/01/02 02:08:04;;;;;;;;;;;;;;;;;;7398405;19;19919;-63
2022/01/02 02:10:39;;;;;;;;;;;;;;;;;;7398811;19;20431;-50
2022/01/02 02:13:09;;;;;;;;;;;;;;;;;;7396790;19;19919;-55
2022/01/02 02:15:42;;;;;;;;;;;;;;;;;;7396102;19;19914;-65
2022/01/02 02:18:10;;;;;;;;;;;;;;;;;;7395754;19;19915;-53
2022/01/02 02:20:38;;;;;;;;;;;;;;;;;;7398119;19;19952;-49
2022/01/02 02:23:15;;;;;;;;;;;;;;;;;;7396322;19;19919;-52
2022/01/02 02:25:43;;;;;;;;;;;;;;;;;;7396442;19;19918;-67
2022/01/02 02:28:16;;;;;;;;;;;;;;;;;;7396012;19;20332;-53
2022/01/02 02:30:48;;;;;;;;;;;;;;;;;;7397880;19;19915;-50
2022/01/02 02:33:16;;;;;;;;;;;;;;;;;;7397598;19;19947;-48
2022/01/02 02:35:46;;;;;;;;;;;;;;;;;;7394795;19;19923;-65
2022/01/02 02:38:16;;;;;;;;;;;;;;;;;;7394631;19;19934;-60
2022/01/02 02:40:46;;;;;;;;;;;;;;;;;;7395914;19;20261;-66
2022/01/02 02:49:01;;;;;;;;;;;;;;;;;;7395180;19;19919;-56
2022/01/02 02:51:40;;;;;;;;;;;;;;;;;;7400100;19;19939;-64
2022/01/02 02:54:10;;;;;;;;;;;;;;;;;;7394931;19;19915;-54
2022/01/02 02:56:54;;;;;;;;;;;;;;;;;;7394938;19;19937;-56
2022/01/02 02:59:23;;;;;;;;;;;;;;;;;;7392861;19;19978;-51
2022/01/02 03:01:51;;;;;;;;;;;;;;;;;;7395189;19;19919;-52
2022/01/02 03:04:19;;;;;;;;;;;;;;;;;;7394414;19;19915;-59
2022/01/02 03:06:47;;;;;;;;;;;;;;;;;;7394713;19;19918;-48
2022/01/02 03:09:18;;;;;;;;;;;;;;;;;;7395042;19;19930;-56
2022/01/02 03:11:45;;;;;;;;;;;;;;;;;;7396030;19;19928;-49
2022/01/02 03:14:13;;;;;;;;;;;;;;;;;;7394348;19;19911;-52
2022/01/02 03:16:42;;;;;;;;;;;;;;;;;;7394849;19;19956;-65
2022/01/02 03:19:10;;;;;;;;;;;;;;;;;;7392953;19;19947;-58
2022/01/02 03:21:37;;;;;;;;;;;;;;;;;;7394477;19;19929;-64
2022/01/02 03:24:05;;;;;;;;;;;;;;;;;;7394135;19;19919;-52
2022/01/02 03:26:32;;;;;;;;;;;;;;;;;;7395704;19;19915;-52
2022/01/02 03:28:59;;;;;;;;;;;;;;;;;;7395781;19;19918;-55
2022/01/02 03:31:27;;;;;;;;;;;;;;;;;;7398031;19;19911;-64
2022/01/02 03:33:55;;;;;;;;;;;;;;;;;;7395186;19;19919;-52
2022/01/02 03:36:23;;;;;;;;;;;;;;;;;;7392862;19;19927;-63
2022/01/02 03:38:51;;;;;;;;;;;;;;;;;;7392261;19;19951;-58
2022/01/02 03:41:19;;;;;;;;;;;;;;;;;;7394903;19;20006;-66
2022/01/02 03:43:46;;;;;;;;;;;;;;;;;;7394525;19;20423;-59
2022/01/02 03:46:14;;;;;;;;;;;;;;;;;;7395070;19;19911;-48
2022/01/02 03:48:42;;;;;;;;;;;;;;;;;;7393258;19;19918;-64
2022/01/02 03:51:12;;;;;;;;;;;;;;;;;;7397499;19;20270;-63
2022/01/02 03:53:39;;;;;;;;;;;;;;;;;;7393120;19;19923;-52
2022/01/02 03:56:07;;;;;;;;;;;;;;;;;;7393190;19;19926;-48
2022/01/02 03:58:34;;;;;;;;;;;;;;;;;;7392237;19;19970;-56
2022/01/02 04:01:02;;;;;;;;;;;;;;;;;;7392594;19;19915;-51
2022/01/02 04:03:30;;;;;;;;;;;;;;;;;;7393605;19;19922;-57
2022/01/02 04:05:57;;;;;;;;;;;;;;;;;;7391282;19;19919;-49
2022/01/02 04:08:25;;;;;;;;;;;;;;;;;;7388657;19;19918;-51
2022/01/02 04:10:53;;;;;;;;;;;;;;;;;;7389184;19;20265;-49
2022/01/02 04:13:20;;;;;;;;;;;;;;;;;;7389916;19;19943;-55
2022/01/02 04:15:48;;;;;;;;;;;;;;;;;;7388982;19;20227;-51
2022/01/02 04:18:16;;;;;;;;;;;;;;;;;;7387975;19;19918;-55
2022/01/02 04:20:43;;;;;;;;;;;;;;;;;;7389890;19;19919;-55
2022/01/02 04:23:10;;;;;;;;;;;;;;;;;;7388379;19;19915;-54
2022/01/02 04:25:38;;;;;;;;;;;;;;;;;;7390582;19;19937;-48
2022/01/02 04:28:05;;;;;;;;;;;;;;;;;;7388620;19;20278;-53
2022/01/02 04:30:34;;;;;;;;;;;;;;;;;;7389953;19;19927;-52
2022/01/02 04:33:02;;;;;;;;;;;;;;;;;;7390044;19;19914;-51
2022/01/02 04:35:30;;;;;;;;;;;;;;;;;;7388655;19;19911;-64
2022/01/02 04:37:57;;;;;;;;;;;;;;;;;;7390117;19;19968;-61
2022/01/02 04:40:25;;;;;;;;;;;;;;;;;;7389649;19;19914;-56
2022/01/02 04:42:52;;;;;;;;;;;;;;;;;;7388474;19;19935;-49
2022/01/02 04:45:20;;;;;;;;;;;;;;;;;;7388263;19;19926;-63
2022/01/02 04:47:48;;;;;;;;;;;;;;;;;;7388987;19;19923;-53
2022/01/02 04:50:16;;;;;;;;;;;;;;;;;;7389299;19;19918;-53
2022/01/02 04:52:43;;;;;;;;;;;;;;;;;;7389577;19;19915;-62
2022/01/02 04:55:11;;;;;;;;;;;;;;;;;;7389593;19;19919;-56
2022/01/02 04:57:38;;;;;;;;;;;;;;;;;;7388698;19;19907;-48
2022/01/02 05:00:06;;;;;;;;;;;;;;;;;;7387277;19;20308;-51
2022/01/02 05:02:34;;;;;;;;;;;;;;;;;;7387836;19;19918;-48
2022/01/02 05:05:01;;;;;;;;;;;;;;;;;;7385310;19;19946;-57
2022/01/02 05:07:29;;;;;;;;;;;;;;;;;;7387039;19;19922;-55
2022/01/02 05:09:56;;;;;;;;;;;;;;;;;;7388803;19;19946;-61
2022/01/02 05:12:24;;;;;;;;;;;;;;;;;;7389056;19;19930;-64
2022/01/02 05:14:51;;;;;;;;;;;;;;;;;;7391905;19;19925;-63
2022/01/02 05:17:19;;;;;;;;;;;;;;;;;;7391091;19;19931;-62
2022/01/02 05:19:47;;;;;;;;;;;;;;;;;;7390877;19;19923;-58
2022/01/02 05:22:15;;;;;;;;;;;;;;;;;;7392643;19;19922;-64
2022/01/02 05:24:42;;;;;;;;;;;;;;;;;;7390666;19;19926;-54
2022/01/02 05:27:10;;;;;;;;;;;;;;;;;;7390835;19;19986;-48
2022/01/02 05:29:38;;;;;;;;;;;;;;;;;;7391568;19;19927;-50
2022/01/02 05:32:06;;;;;;;;;;;;;;;;;;7390014;19;19978;-60
2022/01/02 05:34:33;;;;;;;;;;;;;;;;;;7390098;19;19911;-52
2022/01/02 05:37:02;;;;;;;;;;;;;;;;;;7388523;19;19947;-55
2022/01/02 05:39:32;;;;;;;;;;;;;;;;;;7389084;19;19914;-55
2022/01/02 05:42:00;;;;;;;;;;;;;;;;;;7391363;19;19915;-49
2022/01/02 05:44:27;;;;;;;;;;;;;;;;;;7392236;19;19910;-51
2022/01/02 05:46:55;;;;;;;;;;;;;;;;;;7390055;19;19923;-53
2022/01/02 05:49:24;;;;;;;;;;;;;;;;;;7389618;19;19914;-64
2022/01/02 05:51:51;;;;;;;;;;;;;;;;;;7391528;19;20361;-57
2022/01/02 05:54:20;;;;;;;;;;;;;;;;;;7388629;19;19918;-60
2022/01/02 05:56:47;;;;;;;;;;;;;;;;;;7389605;19;20295;-48
2022/01/02 05:59:15;;;;;;;;;;;;;;;;;;7388313;19;19925;-49
2022/01/02 06:01:43;;;;;;;;;;;;;;;;;;7391314;19;19925;-49
2022/01/02 06:04:10;;;;;;;;;;;;;;;;;;7391083;19;19915;-65
2022/01/02 06:06:38;;;;;;;;;;;;;;;;;;7391088;19;19933;-64
2022/01/02 06:09:06;;;;;;;;;;;;;;;;;;7388866;19;19925;-55
2022/01/02 06:11:36;;;;;;;;;;;;;;;;;;7388689;19;19914;-51
2022/01/02 06:14:03;;;;;;;;;;;;;;;;;;7390372;19;19939;-50
2022/01/02 06:16:32;;;;;;;;;;;;;;;;;;7391563;19;20251;-60
2022/01/02 06:19:00;;;;;;;;;;;;;;;;;;7397427;19;20267;-65
2022/01/02 06:21:28;;;;;;;;;;;;;;;;;;7398574;19;20252;-61
2022/01/02 06:23:55;;;;;;;;;;;;;;;;;;7396308;19;19982;-48
2022/01/02 06:26:23;;;;;;;;;;;;;;;;;;7396284;19;19926;-48
2022/01/02 06:28:50;;;;;;;;;;;;;;;;;;7397203;19;20033;-65
2022/01/02 06:31:18;;;;;;;;;;;;;;;;;;7395961;19;19915;-47
2022/01/02 06:33:47;;;;;;;;;;;;;;;;;;7395808;19;19922;-50
2022/01/02 06:36:15;;;;;;;;;;;;;;;;;;7393539;19;19934;-54
2022/01/02 06:38:43;;;;;;;;;;;;;;;;;;7395730;19;19923;-51
2022/01/02 06:41:12;;;;;;;;;;;;;;;;;;7396378;19;19915;-56
2022/01/02 06:43:41;;;;;;;;;;;;;;;;;;7397629;19;19918;-64
2022/01/02 06:46:08;;;;;;;;;;;;;;;;;;7394397;19;20305;-63
2022/01/02 06:48:36;;;;;;;;;;;;;;;;;;7395780;19;20012;-65
2022/01/02 06:51:03;;;;;;;;;;;;;;;;;;7400834;19;20020;-54
2022/01/02 06:53:30;;;;;;;;;;;;;;;;;;7396744;19;20335;-56
2022/01/02 06:55:58;;;;;;;;;;;;;;;;;;7397272;19;20354;-52
2022/01/02 06:58:25;;;;;;;;;;;;;;;;;;7397122;19;19918;-58
2022/01/02 07:00:52;;;;;;;;;;;;;;;;;;7397276;19;20526;-66
2022/01/02 07:03:21;;;;;;;;;;;;;;;;;;7395461;19;19935;-47
2022/01/02 07:05:48;;;;;;;;;;;;;;;;;;7394634;19;19919;-52
2022/01/02 07:08:15;;;;;;;;;;;;;;;;;;7394909;19;19928;-60
2022/01/02 07:10:43;;;;;;;;;;;;;;;;;;7394580;19;20335;-51
2022/01/02 07:13:10;;;;;;;;;;;;;;;;;;7396527;19;19918;-49
2022/01/02 07:15:37;;;;;;;;;;;;;;;;;;7394962;19;19990;-48
2022/01/02 07:18:04;;;;;;;;;;;;;;;;;;7395895;19;19914;-51
2022/01/02 07:20:32;;;;;;;;;;;;;;;;;;7394119;19;20350;-64
2022/01/02 07:22:59;;;;;;;;;;;;;;;;;;7396461;19;19974;-53
2022/01/02 07:25:26;;;;;;;;;;;;;;;;;;7396138;19;19925;-51
2022/01/02 07:27:53;;;;;;;;;;;;;;;;;;7393688;19;19955;-50
2022/01/02 07:30:20;;;;;;;;;;;;;;;;;;7395119;19;19919;-64
2022/01/02 07:32:47;;;;;;;;;;;;;;;;;;7395624;19;19922;-64
2022/01/02 07:35:15;;;;;;;;;;;;;;;;;;7394806;19;20240;-52
2022/01/02 07:37:42;;;;;;;;;;;;;;;;;;7394507;19;20340;-60
2022/01/02 07:40:09;;;;;;;;;;;;;;;;;;7393189;19;19918;-63
2022/01/02 07:42:37;;;;;;;;;;;;;;;;;;7395674;19;19915;-56
2022/01/02 07:45:12;;;;;;;;;;;;;;;;;;7395182;19;19915;-58
2022/01/02 07:47:39;;;;;;;;;;;;;;;;;;7392799;19;19926;-63
2022/01/02 07:50:07;;;;;;;;;;;;;;;;;;7395918;19;19982;-58
2022/01/02 07:52:34;;;;;;;;;;;;;;;;;;7394822;19;19915;-48
2022/01/02 07:55:01;;;;;;;;;;;;;;;;;;7394865;19;20004;-50
2022/01/02 07:57:29;;;;;;;;;;;;;;;;;;7392674;19;20260;-64
2022/01/02 07:59:56;;;;;;;;;;;;;;;;;;7393267;19;19919;-59
2022/01/02 08:02:40;;;;;;;;;;;;;;;;;;7394445;19;19941;-49
2022/01/02 08:05:10;;;;;;;;;;;;;;;;;;7394227;19;19919;-51
2022/01/02 08:07:38;;;;;;;;;;;;;;;;;;7394372;19;20370;-60
2022/01/02 08:10:06;;;;;;;;;;;;;;;;;;7394188;19;20343;-63
2022/01/02 08:12:33;;;;;;;;;;;;;;;;;;7394278;19;19915;-47
2022/01/02 08:15:01;;;;;;;;;;;;;;;;;;7392670;19;20299;-48
2022/01/02 08:17:29;;;;;;;;;;;;;;;;;;7392196;19;20372;-56
2022/01/02 08:19:56;;;;;;;;;;;;;;;;;;7392581;19;19918;-61
2022/01/02 08:22:23;;;;;;;;;;;;;;;;;;7393350;19;20045;-58
2022/01/02 08:24:50;;;;;;;;;;;;;;;;;;7393137;19;19911;-66
2022/01/02 08:27:18;;;;;;;;;;;;;;;;;;7393275;19;19918;-56
2022/01/02 08:29:45;;;;;;;;;;;;;;;;;;7393993;19;19921;-48
2022/01/02 08:32:12;;;;;;;;;;;;;;;;;;7392984;19;19918;-64
2022/01/02 08:34:39;;;;;;;;;;;;;;;;;;7392879;19;19935;-50
2022/01/02 08:37:06;;;;;;;;;;;;;;;;;;7396118;19;20446;-48
2022/01/02 08:39:34;;;;;;;;;;;;;;;;;;7392423;19;19933;-54
2022/01/02 08:42:01;;;;;;;;;;;;;;;;;;7392441;19;19942;-65
2022/01/02 08:44:28;;;;;;;;;;;;;;;;;;7392967;19;19923;-51
2022/01/02 08:46:55;;;;;;;;;;;;;;;;;;7393331;19;19962;-53
2022/01/02 08:49:22;;;;;;;;;;;;;;;;;;7391236;19;19931;-51
2022/01/02 08:51:50;;;;;;;;;;;;;;;;;;7392895;19;19922;-57
2022/01/02 08:54:17;;;;;;;;;;;;;;;;;;7393097;19;19926;-48
2022/01/02 08:56:45;;;;;;;;;;;;;;;;;;7392507;19;19911;-62
2022/01/02 08:59:12;;;;;;;;;;;;;;;;;;7392458;19;19919;-58
2022/01/02 09:01:39;;;;;;;;;;;;;;;;;;7391977;19;20336;-54
2022/01/02 09:04:06;;;;;;;;;;;;;;;;;;7390188;19;19974;-47
2022/01/02 09:06:34;;;;;;;;;;;;;;;;;;7391986;19;19911;-51
2022/01/02 09:09:01;;;;;;;;;;;;;;;;;;7392703;19;19915;-55
2022/01/02 09:11:28;;;;;;;;;;;;;;;;;;7391026;19;19935;-57
2022/01/02 09:13:58;;;;;;;;;;;;;;;;;;7392622;19;19918;-49
2022/01/02 09:16:26;;;;;;;;;;;;;;;;;;7391706;19;19931;-54
2022/01/02 09:18:53;;;;;;;;;;;;;;;;;;7392095;19;19918;-63
2022/01/02 09:21:20;;;;;;;;;;;;;;;;;;7392030;19;19922;-48
2022/01/02 09:23:47;;;;;;;;;;;;;;;;;;7391554;19;19943;-47
2022/01/02 09:26:14;;;;;;;;;;;;;;;;;;7390504;19;20299;-56
2022/01/02 09:28:41;;;;;;;;;;;;;;;;;;7392074;19;19918;-66
2022/01/02 09:31:09;;;;;;;;;;;;;;;;;;7391588;19;19914;-53
2022/01/02 09:33:36;;;;;;;;;;;;;;;;;;7391654;19;19914;-55
2022/01/02 09:36:04;;;;;;;;;;;;;;;;;;7394073;19;19930;-52
2022/01/02 09:38:31;;;;;;;;;;;;;;;;;;7391619;19;19919;-48
2022/01/02 09:40:59;;;;;;;;;;;;;;;;;;7390752;19;19922;-65
2022/01/02 09:43:27;;;;;;;;;;;;;;;;;;7390625;19;19924;-52
2022/01/02 09:45:54;;;;;;;;;;;;;;;;;;7391348;19;19918;-60
2022/01/02 09:48:22;;;;;;;;;;;;;;;;;;7390804;19;19942;-50
2022/01/02 09:50:50;;;;;;;;;;;;;;;;;;7394475;19;19919;-49
2022/01/02 09:53:17;;;;;;;;;;;;;;;;;;7398764;19;19914;-59
2022/01/02 09:55:44;;;;;;;;;;;;;;;;;;7401462;19;20010;-64
2022/01/02 09:58:12;;;;;;;;;;;;;;;;;;7397672;19;19918;-67
2022/01/02 10:00:40;;;;;;;;;;;;;;;;;;7396392;19;19919;-59
2022/01/02 10:03:09;;;;;;;;;;;;;;;;;;7398094;19;19924;-54
2022/01/02 10:05:57;;;;;;;;;;;;;;;;;;7397625;19;19927;-60
2022/01/02 10:08:28;;;;;;;;;;;;;;;;;;7398283;19;20146;-62
2022/01/02 10:11:04;;;;;;;;;;;;;;;;;;7397987;19;19918;-55
2022/01/02 10:13:43;;;;;;;;;;;;;;;;;;7398151;19;19947;-66
2022/01/02 10:16:28;;;;;;;;;;;;;;;;;;7398043;19;19922;-51
2022/01/02 10:18:55;;;;;;;;;;;;;;;;;;7397662;19;19933;-53
2022/01/02 10:21:33;;;;;;;;;;;;;;;;;;7395140;19;19926;-52
2022/01/02 10:24:09;;;;;;;;;;;;;;;;;;7397969;19;19936;-59
2022/01/02 10:26:36;;;;;;;;;;;;;;;;;;7397081;19;19913;-48
2022/01/02 10:29:13;;;;;;;;;;;;;;;;;;7398129;19;19974;-67
2022/01/02 10:31:41;;;;;;;;;;;;;;;;;;7397297;19;19943;-66
2022/01/02 10:34:08;;;;;;;;;;;;;;;;;;7397082;19;19922;-61
2022/01/02 10:36:40;;;;;;;;;;;;;;;;;;7394258;19;19922;-50
2022/01/02 10:39:10;;;;;;;;;;;;;;;;;;7394854;19;20270;-52
2022/01/02 10:41:38;;;;;;;;;;;;;;;;;;7390304;19;19919;-62
2022/01/02 10:44:35;;;;;;;;;;;;;;;;;;7392846;19;19919;-60
2022/01/02 10:47:21;;;;;;;;;;;;;;;;;;7394011;19;19980;-58
2022/01/02 10:50:01;;;;;;;;;;;;;;;;;;7394419;19;19922;-51
2022/01/02 10:52:35;;;;;;;;;;;;;;;;;;7392906;19;19919;-52
2022/01/02 10:55:06;;;;;;;;;;;;;;;;;;7392846;19;19918;-53
2022/01/02 10:57:33;;;;;;;;;;;;;;;;;;7393305;19;19922;-48
2022/01/02 11:00:01;;;;;;;;;;;;;;;;;;7392261;19;20462;-55
2022/01/02 11:02:29;;;;;;;;;;;;;;;;;;7390631;19;19929;-55
2022/01/02 11:04:59;;;;;;;;;;;;;;;;;;7389034;19;19955;-65
2022/01/02 11:07:26;;;;;;;;;;;;;;;;;;7392209;19;20494;-56
2022/01/02 11:09:55;;;;;;;;;;;;;;;;;;7392167;19;19911;-65
2022/01/02 11:12:26;;;;;;;;;;;;;;;;;;7391929;19;19926;-64
2022/01/02 11:14:53;;;;;;;;;;;;;;;;;;7391880;19;19945;-51
2022/01/02 11:17:20;;;;;;;;;;;;;;;;;;7391176;19;19930;-56
2022/01/02 11:19:48;;;;;;;;;;;;;;;;;;7391111;19;19928;-63
2022/01/02 11:22:44;;;;;;;;;;;;;;;;;;7391822;19;19923;-53
2022/01/02 11:25:23;;;;;;;;;;;;;;;;;;7390497;19;19922;-56
2022/01/02 11:27:52;;;;;;;;;;;;;;;;;;7391430;19;19978;-57
2022/01/02 11:30:46;;;;;;;;;;;;;;;;;;7390893;19;19918;-49
2022/01/02 11:33:25;;;;;;;;;;;;;;;;;;7389519;19;19922;-55
2022/01/02 11:35:53;;;;;;;;;;;;;;;;;;7389803;19;19934;-51
2022/01/02 11:38:22;;;;;;;;;;;;;;;;;;7391040;19;19915;-52
2022/01/02 11:40:49;;;;;;;;;;;;;;;;;;7390082;19;19918;-49
2022/01/02 11:43:35;;;;;;;;;;;;;;;;;;7389815;19;19927;-57
2022/01/02 11:46:21;;;;;;;;;;;;;;;;;;7391920;19;19918;-52
2022/01/02 11:49:37;;;;;;;;;;;;;;;;;;7390216;19;19933;-56
2022/01/02 11:51:59;;;;;;;;;;;;;;;;;;7390576;19;19921;-47
2022/01/02 11:54:32;;;;;;;;;;;;;;;;;;7391217;19;19929;-62
2022/01/02 11:57:12;;;;;;;;;;;;;;;;;;7391512;19;19982;-63
2022/01/02 11:59:39;;;;;;;;;;;;;;;;;;7390679;19;19926;-65
2022/01/02 12:02:07;;;;;;;;;;;;;;;;;;7390121;19;19918;-56
2022/01/02 12:04:53;;;;;;;;;;;;;;;;;;7391298;19;19910;-59
2022/01/02 12:07:36;;;;;;;;;;;;;;;;;;7390312;19;19918;-61
2022/01/02 12:10:24;;;;;;;;;;;;;;;;;;7390854;19;19915;-61
2022/01/02 12:13:02;;;;;;;;;;;;;;;;;;7390165;19;19925;-62
2022/01/02 12:15:32;;;;;;;;;;;;;;;;;;7389155;19;19926;-49
2022/01/02 12:18:23;;;;;;;;;;;;;;;;;;7391269;19;19919;-50
2022/01/02 12:20:50;;;;;;;;;;;;;;;;;;7389324;19;19929;-51
2022/01/02 12:23:36;;;;;;;;;;;;;;;;;;7389633;19;20340;-50
2022/01/02 12:26:05;;;;;;;;;;;;;;;;;;7390547;19;19940;-51
2022/01/02 12:28:42;;;;;;;;;;;;;;;;;;7388562;19;19919;-65
2022/01/02 12:31:11;;;;;;;;;;;;;;;;;;7390325;19;19925;-50
2022/01/02 12:33:38;;;;;;;;;;;;;;;;;;7389915;19;19943;-62
2022/01/02 12:36:17;;;;;;;;;;;;;;;;;;7388771;19;19919;-58
2022/01/02 12:38:55;;;;;;;;;;;;;;;;;;7389542;19;19938;-66
2022/01/02 12:41:33;;;;;;;;;;;;;;;;;;7388402;19;19915;-59
2022/01/02 12:44:08;;;;;;;;;;;;;;;;;;7390272;19;19931;-50
2022/01/02 12:46:38;;;;;;;;;;;;;;;;;;7390844;19;19947;-52
2022/01/02 12:49:08;;;;;;;;;;;;;;;;;;7388956;19;19918;-53
2022/01/02 12:51:37;;;;;;;;;;;;;;;;;;7393561;19;19915;-51
2022/01/02 12:54:08;;;;;;;;;;;;;;;;;;7389280;19;19966;-55
2022/01/02 12:56:37;;;;;;;;;;;;;;;;;;7389173;19;19982;-53
2022/01/02 12:59:11;;;;;;;;;;;;;;;;;;7389112;19;20344;-55
2022/01/02 13:01:49;;;;;;;;;;;;;;;;;;7387634;19;19942;-51
2022/01/02 13:04:21;;;;;;;;;;;;;;;;;;7388780;19;20344;-53
2022/01/02 13:06:53;;;;;;;;;;;;;;;;;;7389100;19;19914;-61
2022/01/02 13:09:24;;;;;;;;;;;;;;;;;;7388636;19;19918;-52
2022/01/02 13:11:52;;;;;;;;;;;;;;;;;;7388302;19;19921;-65
2022/01/02 13:14:55;;;;;;;;;;;;;;;;;;7388564;19;20368;-47
2022/01/02 13:17:24;;;;;;;;;;;;;;;;;;7384605;19;19911;-64
2022/01/02 13:19:56;;;;;;;;;;;;;;;;;;7387366;19;19922;-52
2022/01/02 13:22:25;;;;;;;;;;;;;;;;;;7388025;19;19914;-51
2022/01/02 13:25:14;;;;;;;;;;;;;;;;;;7388121;19;19926;-56
2022/01/02 13:28:07;;;;;;;;;;;;;;;;;;7385173;19;20018;-56
2022/01/02 13:30:39;;;;;;;;;;;;;;;;;;7388306;19;19914;-54
2022/01/02 13:33:20;;;;;;;;;;;;;;;;;;7387662;19;19917;-50
2022/01/02 13:35:47;;;;;;;;;;;;;;;;;;7387272;19;20375;-52
2022/01/02 13:38:16;;;;;;;;;;;;;;;;;;7387492;19;20255;-49
2022/01/02 13:40:44;;;;;;;;;;;;;;;;;;7386632;19;19926;-48
2022/01/02 13:43:13;;;;;;;;;;;;;;;;;;7385216;19;19936;-49
2022/01/02 13:45:45;;;;;;;;;;;;;;;;;;7385314;19;19925;-54
2022/01/02 13:48:13;;;;;;;;;;;;;;;;;;7386047;19;19925;-50
2022/01/02 13:50:45;;;;;;;;;;;;;;;;;;7388780;19;19926;-63
2022/01/02 13:53:14;;;;;;;;;;;;;;;;;;7387625;19;19919;-49
2022/01/02 13:55:43;;;;;;;;;;;;;;;;;;7387268;19;20368;-48
2022/01/02 13:58:16;;;;;;;;;;;;;;;;;;7386113;19;19912;-50
2022/01/02 14:00:46;;;;;;;;;;;;;;;;;;7386877;19;19918;-60
2022/01/02 14:03:43;;;;;;;;;;;;;;;;;;7385767;19;19919;-54
2022/01/02 14:06:13;;;;;;;;;;;;;;;;;;7385635;19;19918;-54
2022/01/02 14:08:46;;;;;;;;;;;;;;;;;;7387468;19;19925;-55
2022/01/02 14:11:15;;;;;;;;;;;;;;;;;;7387325;19;19914;-62
2022/01/02 14:17:00;;;;;;;;;;;;;;;;;;7384369;19;20344;-56
2022/01/02 14:19:30;;;;;;;;;;;;;;;;;;7386858;19;19918;-49
2022/01/02 14:22:02;;;;;;;;;;;;;;;;;;7384646;19;19919;-51
2022/01/02 14:24:29;;;;;;;;;;;;;;;;;;7384519;19;19919;-50
2022/01/02 14:26:57;;;;;;;;;;;;;;;;;;7386577;19;19928;-53
2022/01/02 14:29:25;;;;;;;;;;;;;;;;;;7386719;19;19926;-65
2022/01/02 14:31:52;;;;;;;;;;;;;;;;;;7386069;19;19974;-55
2022/01/02 14:34:20;;;;;;;;;;;;;;;;;;7386268;19;19926;-55
2022/01/02 14:36:48;;;;;;;;;;;;;;;;;;7384056;19;20344;-50
2022/01/02 14:39:15;;;;;;;;;;;;;;;;;;7393785;19;19926;-54
2022/01/02 14:41:43;;;;;;;;;;;;;;;;;;7388979;19;20289;-62
2022/01/02 14:44:11;;;;;;;;;;;;;;;;;;7393145;19;19915;-56
2022/01/02 14:46:38;;;;;;;;;;;;;;;;;;7392386;19;19928;-55
2022/01/02 14:49:06;;;;;;;;;;;;;;;;;;7393511;19;19927;-51
2022/01/02 14:51:34;;;;;;;;;;;;;;;;;;7398464;19;19915;-54
2022/01/02 14:54:02;;;;;;;;;;;;;;;;;;7394484;19;19926;-57
2022/01/02 14:56:30;;;;;;;;;;;;;;;;;;7393199;19;19926;-52
2022/01/02 14:58:57;;;;;;;;;;;;;;;;;;7392296;19;19925;-56
2022/01/02 15:01:25;;;;;;;;;;;;;;;;;;7391047;19;19922;-63
2022/01/02 15:03:53;;;;;;;;;;;;;;;;;;7392605;19;19922;-67
2022/01/02 15:06:20;;;;;;;;;;;;;;;;;;7392707;19;19918;-50
2022/01/02 15:08:47;;;;;;;;;;;;;;;;;;7391949;19;19918;-56
2022/01/02 15:11:14;;;;;;;;;;;;;;;;;;7391621;19;19933;-57
2022/01/02 15:13:42;;;;;;;;;;;;;;;;;;7391882;19;19987;-49
2022/01/02 15:16:09;;;;;;;;;;;;;;;;;;7391324;19;19919;-63
2022/01/02 15:18:36;;;;;;;;;;;;;;;;;;7392703;19;19919;-56
2022/01/02 15:21:03;;;;;;;;;;;;;;;;;;7391564;19;19922;-48
2022/01/02 15:23:30;;;;;;;;;;;;;;;;;;7392503;19;19942;-63
2022/01/02 15:25:58;;;;;;;;;;;;;;;;;;7391826;19;19942;-50
2022/01/02 15:28:38;;;;;;;;;;;;;;;;;;7391496;19;19971;-63
2022/01/02 15:31:06;;;;;;;;;;;;;;;;;;7390144;19;19951;-52
2022/01/02 15:33:33;;;;;;;;;;;;;;;;;;7392032;19;19950;-52
2022/01/02 15:36:00;;;;;;;;;;;;;;;;;;7391739;19;19923;-65
2022/01/02 15:38:27;;;;;;;;;;;;;;;;;;7395125;19;19942;-57
2022/01/02 15:40:56;;;;;;;;;;;;;;;;;;7394568;19;19919;-66
2022/01/02 15:43:23;;;;;;;;;;;;;;;;;;7394888;19;19918;-66
2022/01/02 15:45:51;;;;;;;;;;;;;;;;;;7394910;19;19942;-51
2022/01/02 15:48:21;;;;;;;;;;;;;;;;;;7394327;19;19919;-52
2022/01/02 15:50:51;;;;;;;;;;;;;;;;;;7395669;19;20328;-63
2022/01/02 15:53:18;;;;;;;;;;;;;;;;;;7394173;19;19939;-55
2022/01/02 15:55:45;;;;;;;;;;;;;;;;;;7392788;19;19921;-56
2022/01/02 15:58:17;;;;;;;;;;;;;;;;;;7394017;19;19971;-66
2022/01/02 16:00:45;;;;;;;;;;;;;;;;;;7394016;19;19985;-55
2022/01/02 16:03:12;;;;;;;;;;;;;;;;;;7394312;19;19942;-66
2022/01/02 16:05:42;;;;;;;;;;;;;;;;;;7394861;19;19951;-66
2022/01/02 16:08:10;;;;;;;;;;;;;;;;;;7394086;19;19919;-58
2022/01/02 16:10:39;;;;;;;;;;;;;;;;;;7393943;19;19930;-53
2022/01/02 16:13:06;;;;;;;;;;;;;;;;;;7393399;19;19940;-56
2022/01/02 16:15:33;;;;;;;;;;;;;;;;;;7393728;19;19929;-58
2022/01/02 16:18:01;;;;;;;;;;;;;;;;;;7394768;19;20031;-54
2022/01/02 16:20:28;;;;;;;;;;;;;;;;;;7392388;19;19936;-66
2022/01/02 16:22:55;;;;;;;;;;;;;;;;;;7391692;19;20350;-64
2022/01/02 16:25:22;;;;;;;;;;;;;;;;;;7392103;19;19915;-67
2022/01/02 16:27:54;;;;;;;;;;;;;;;;;;7392475;19;19919;-59
2022/01/02 16:30:21;;;;;;;;;;;;;;;;;;7393396;19;19914;-66
2022/01/02 16:32:48;;;;;;;;;;;;;;;;;;7393893;19;19951;-57
2022/01/02 16:35:16;;;;;;;;;;;;;;;;;;7392701;19;19918;-55
2022/01/02 16:37:43;;;;;;;;;;;;;;;;;;7392196;19;20361;-52
2022/01/02 16:40:10;;;;;;;;;;;;;;;;;;7392828;19;19918;-58
2022/01/02 16:42:38;;;;;;;;;;;;;;;;;;7391898;19;19915;-49
2022/01/02 16:45:06;;;;;;;;;;;;;;;;;;7393860;19;20089;-53
2022/01/02 16:47:33;;;;;;;;;;;;;;;;;;7393396;19;19951;-53
2022/01/02 16:50:03;;;;;;;;;;;;;;;;;;7394706;19;20265;-50
2022/01/02 16:52:33;;;;;;;;;;;;;;;;;;7392896;19;19928;-67
2022/01/02 16:55:01;;;;;;;;;;;;;;;;;;7392123;19;19910;-49
2022/01/02 16:57:30;;;;;;;;;;;;;;;;;;7393240;19;19914;-66
2022/01/02 16:59:57;;;;;;;;;;;;;;;;;;7393348;19;19919;-67
2022/01/02 17:02:25;;;;;;;;;;;;;;;;;;7390421;19;20542;-57
2022/01/02 17:04:52;;;;;;;;;;;;;;;;;;7391890;19;19910;-53
2022/01/02 17:07:19;;;;;;;;;;;;;;;;;;7392676;19;19915;-50
2022/01/02 17:09:47;;;;;;;;;;;;;;;;;;7390543;19;19929;-54
2022/01/02 17:12:14;;;;;;;;;;;;;;;;;;7391979;19;20007;-60